sensor_id;sensor_type;location;lat;lon;timestamp;P1;durP1;ratioP1;P2;durP2;ratioP2
33993;SDS011;20673;48.980;8.138;2024-02-15T00:01:02;5.87;;;3.40;;
33993;SDS011;20673;48.980;8.138;2024-02-15T00:03:29;3.85;;;3.15;;
33993;SDS011;20673;48.980;8.138;2024-02-15T00:05:57;7.53;;;3.50;;
33993;SDS011;20673;48.980;8.138;2024-02-15T00:08:24;6.62;;;3.15;;
33993;SDS011;20673;48.980;8.138;2024-02-15T00:10:52;5.25;;;3.08;;
33993;SDS011;20673;48.980;8.138;2024-02-15T00:13:19;4.30;;;3.20;;
33993;SDS011;20673;48.980;8.138;2024-02-15T00:15:45;4.62;;;3.25;;
33993;SDS011;20673;48.980;8.138;2024-02-15T00:18:13;6.70;;;3.40;;
33993;SDS011;20673;48.980;8.138;2024-02-15T00:20:39;5.60;;;3.27;;
33993;SDS011;20673;48.980;8.138;2024-02-15T00:23:06;8.25;;;3.45;;
33993;SDS011;20673;48.980;8.138;2024-02-15T00:25:32;8.73;;;3.65;;
33993;SDS011;20673;48.980;8.138;2024-02-15T00:27:59;6.15;;;3.27;;
33993;SDS011;20673;48.980;8.138;2024-02-15T00:30:25;9.65;;;3.80;;
33993;SDS011;20673;48.980;8.138;2024-02-15T00:32:52;5.92;;;3.85;;
33993;SDS011;20673;48.980;8.138;2024-02-15T00:35:19;7.42;;;3.42;;
33993;SDS011;20673;48.980;8.138;2024-02-15T00:37:45;6.55;;;3.83;;
33993;SDS011;20673;48.980;8.138;2024-02-15T00:40:12;6.35;;;3.75;;
33993;SDS011;20673;48.980;8.138;2024-02-15T00:42:38;6.22;;;3.27;;
33993;SDS011;20673;48.980;8.138;2024-02-15T00:45:05;8.20;;;3.90;;
33993;SDS011;20673;48.980;8.138;2024-02-15T00:47:33;7.95;;;4.30;;
33993;SDS011;20673;48.980;8.138;2024-02-15T00:49:59;5.08;;;3.37;;
33993;SDS011;20673;48.980;8.138;2024-02-15T00:52:25;7.58;;;4.20;;
33993;SDS011;20673;48.980;8.138;2024-02-15T00:54:51;10.48;;;4.37;;
33993;SDS011;20673;48.980;8.138;2024-02-15T00:57:18;4.90;;;3.60;;
33993;SDS011;20673;48.980;8.138;2024-02-15T00:59:44;7.50;;;4.08;;
33993;SDS011;20673;48.980;8.138;2024-02-15T01:02:10;7.47;;;4.50;;
33993;SDS011;20673;48.980;8.138;2024-02-15T01:04:36;7.05;;;4.35;;
33993;SDS011;20673;48.980;8.138;2024-02-15T01:07:02;7.62;;;5.15;;
33993;SDS011;20673;48.980;8.138;2024-02-15T01:09:29;6.87;;;4.87;;
33993;SDS011;20673;48.980;8.138;2024-02-15T01:11:55;7.60;;;4.20;;
33993;SDS011;20673;48.980;8.138;2024-02-15T01:14:21;11.25;;;4.42;;
33993;SDS011;20673;48.980;8.138;2024-02-15T01:16:47;10.10;;;4.08;;
33993;SDS011;20673;48.980;8.138;2024-02-15T01:19:14;8.13;;;4.72;;
33993;SDS011;20673;48.980;8.138;2024-02-15T01:21:40;4.33;;;3.72;;
33993;SDS011;20673;48.980;8.138;2024-02-15T01:24:06;9.13;;;4.58;;
33993;SDS011;20673;48.980;8.138;2024-02-15T01:26:32;7.90;;;4.62;;
33993;SDS011;20673;48.980;8.138;2024-02-15T01:29:00;5.78;;;3.77;;
33993;SDS011;20673;48.980;8.138;2024-02-15T01:31:26;9.35;;;5.33;;
33993;SDS011;20673;48.980;8.138;2024-02-15T01:33:52;8.68;;;5.37;;
33993;SDS011;20673;48.980;8.138;2024-02-15T01:36:18;7.90;;;5.40;;
33993;SDS011;20673;48.980;8.138;2024-02-15T01:38:44;7.17;;;4.50;;
33993;SDS011;20673;48.980;8.138;2024-02-15T01:41:10;6.60;;;4.53;;
33993;SDS011;20673;48.980;8.138;2024-02-15T01:43:37;7.20;;;4.45;;
33993;SDS011;20673;48.980;8.138;2024-02-15T01:46:10;5.58;;;4.25;;
33993;SDS011;20673;48.980;8.138;2024-02-15T01:48:36;7.70;;;4.20;;
33993;SDS011;20673;48.980;8.138;2024-02-15T01:51:05;8.83;;;4.45;;
33993;SDS011;20673;48.980;8.138;2024-02-15T01:53:33;9.70;;;4.87;;
33993;SDS011;20673;48.980;8.138;2024-02-15T01:56:00;5.17;;;3.92;;
33993;SDS011;20673;48.980;8.138;2024-02-15T01:58:26;10.30;;;4.47;;
33993;SDS011;20673;48.980;8.138;2024-02-15T02:00:55;5.50;;;4.70;;
33993;SDS011;20673;48.980;8.138;2024-02-15T02:03:22;7.90;;;4.97;;
33993;SDS011;20673;48.980;8.138;2024-02-15T02:05:49;9.33;;;4.80;;
33993;SDS011;20673;48.980;8.138;2024-02-15T02:08:16;7.28;;;4.90;;
33993;SDS011;20673;48.980;8.138;2024-02-15T02:10:42;7.80;;;4.42;;
33993;SDS011;20673;48.980;8.138;2024-02-15T02:13:11;7.45;;;6.12;;
33993;SDS011;20673;48.980;8.138;2024-02-15T02:15:38;9.60;;;5.47;;
33993;SDS011;20673;48.980;8.138;2024-02-15T02:18:05;8.95;;;4.50;;
33993;SDS011;20673;48.980;8.138;2024-02-15T02:20:35;7.40;;;4.47;;
33993;SDS011;20673;48.980;8.138;2024-02-15T02:23:09;9.83;;;4.20;;
33993;SDS011;20673;48.980;8.138;2024-02-15T02:25:42;7.00;;;4.22;;
33993;SDS011;20673;48.980;8.138;2024-02-15T02:28:09;9.10;;;4.12;;
33993;SDS011;20673;48.980;8.138;2024-02-15T02:30:37;8.95;;;5.75;;
33993;SDS011;20673;48.980;8.138;2024-02-15T02:33:05;11.35;;;5.87;;
33993;SDS011;20673;48.980;8.138;2024-02-15T02:35:32;9.60;;;6.08;;
33993;SDS011;20673;48.980;8.138;2024-02-15T02:37:59;7.30;;;5.10;;
33993;SDS011;20673;48.980;8.138;2024-02-15T02:40:25;7.78;;;4.65;;
33993;SDS011;20673;48.980;8.138;2024-02-15T02:42:52;10.85;;;5.53;;
33993;SDS011;20673;48.980;8.138;2024-02-15T02:45:26;9.78;;;6.40;;
33993;SDS011;20673;48.980;8.138;2024-02-15T02:47:53;8.70;;;5.08;;
33993;SDS011;20673;48.980;8.138;2024-02-15T02:50:20;12.03;;;5.90;;
33993;SDS011;20673;48.980;8.138;2024-02-15T02:52:48;6.22;;;4.92;;
33993;SDS011;20673;48.980;8.138;2024-02-15T02:55:14;8.90;;;5.05;;
33993;SDS011;20673;48.980;8.138;2024-02-15T02:57:41;7.78;;;4.75;;
33993;SDS011;20673;48.980;8.138;2024-02-15T03:00:08;7.47;;;4.78;;
33993;SDS011;20673;48.980;8.138;2024-02-15T03:02:42;9.68;;;4.87;;
33993;SDS011;20673;48.980;8.138;2024-02-15T03:05:09;6.55;;;4.47;;
33993;SDS011;20673;48.980;8.138;2024-02-15T03:07:39;10.60;;;5.35;;
33993;SDS011;20673;48.980;8.138;2024-02-15T03:10:10;9.10;;;4.80;;
33993;SDS011;20673;48.980;8.138;2024-02-15T03:12:38;8.35;;;5.28;;
33993;SDS011;20673;48.980;8.138;2024-02-15T03:15:05;6.15;;;4.70;;
33993;SDS011;20673;48.980;8.138;2024-02-15T03:17:41;8.13;;;4.87;;
33993;SDS011;20673;48.980;8.138;2024-02-15T03:20:10;8.00;;;3.83;;
33993;SDS011;20673;48.980;8.138;2024-02-15T03:22:40;10.90;;;5.67;;
33993;SDS011;20673;48.980;8.138;2024-02-15T03:25:07;12.03;;;5.55;;
33993;SDS011;20673;48.980;8.138;2024-02-15T03:30:04;9.55;;;5.37;;
33993;SDS011;20673;48.980;8.138;2024-02-15T03:32:31;7.87;;;4.92;;
33993;SDS011;20673;48.980;8.138;2024-02-15T03:34:58;9.45;;;5.78;;
33993;SDS011;20673;48.980;8.138;2024-02-15T03:37:26;9.45;;;5.17;;
33993;SDS011;20673;48.980;8.138;2024-02-15T03:39:52;7.85;;;5.62;;
33993;SDS011;20673;48.980;8.138;2024-02-15T03:42:19;8.75;;;4.83;;
33993;SDS011;20673;48.980;8.138;2024-02-15T03:44:45;8.95;;;5.17;;
33993;SDS011;20673;48.980;8.138;2024-02-15T03:47:11;10.32;;;5.03;;
33993;SDS011;20673;48.980;8.138;2024-02-15T03:49:39;11.57;;;4.90;;
33993;SDS011;20673;48.980;8.138;2024-02-15T03:52:07;11.60;;;5.53;;
33993;SDS011;20673;48.980;8.138;2024-02-15T03:54:35;10.88;;;5.65;;
33993;SDS011;20673;48.980;8.138;2024-02-15T03:57:02;10.45;;;4.90;;
33993;SDS011;20673;48.980;8.138;2024-02-15T03:59:29;8.08;;;5.17;;
33993;SDS011;20673;48.980;8.138;2024-02-15T04:01:57;9.53;;;5.50;;
33993;SDS011;20673;48.980;8.138;2024-02-15T04:04:23;6.45;;;4.78;;
33993;SDS011;20673;48.980;8.138;2024-02-15T04:06:50;8.70;;;4.70;;
33993;SDS011;20673;48.980;8.138;2024-02-15T04:09:17;5.70;;;4.42;;
33993;SDS011;20673;48.980;8.138;2024-02-15T04:11:46;10.98;;;4.75;;
33993;SDS011;20673;48.980;8.138;2024-02-15T04:14:16;10.68;;;5.08;;
33993;SDS011;20673;48.980;8.138;2024-02-15T04:16:43;8.23;;;4.75;;
33993;SDS011;20673;48.980;8.138;2024-02-15T04:19:10;9.90;;;5.67;;
33993;SDS011;20673;48.980;8.138;2024-02-15T04:21:37;8.43;;;4.33;;
33993;SDS011;20673;48.980;8.138;2024-02-15T04:24:04;7.40;;;4.60;;
33993;SDS011;20673;48.980;8.138;2024-02-15T04:26:31;9.00;;;5.17;;
33993;SDS011;20673;48.980;8.138;2024-02-15T04:28:59;7.80;;;4.95;;
33993;SDS011;20673;48.980;8.138;2024-02-15T04:31:25;8.38;;;5.10;;
33993;SDS011;20673;48.980;8.138;2024-02-15T04:33:54;10.65;;;5.67;;
33993;SDS011;20673;48.980;8.138;2024-02-15T04:36:21;7.25;;;5.12;;
33993;SDS011;20673;48.980;8.138;2024-02-15T04:38:51;7.90;;;5.87;;
33993;SDS011;20673;48.980;8.138;2024-02-15T04:41:18;9.33;;;5.42;;
33993;SDS011;20673;48.980;8.138;2024-02-15T04:43:48;7.90;;;5.22;;
33993;SDS011;20673;48.980;8.138;2024-02-15T04:46:15;8.53;;;6.20;;
33993;SDS011;20673;48.980;8.138;2024-02-15T04:48:41;10.88;;;5.83;;
33993;SDS011;20673;48.980;8.138;2024-02-15T04:51:08;9.58;;;5.80;;
33993;SDS011;20673;48.980;8.138;2024-02-15T04:53:36;10.60;;;5.90;;
33993;SDS011;20673;48.980;8.138;2024-02-15T04:56:05;7.55;;;4.67;;
33993;SDS011;20673;48.980;8.138;2024-02-15T04:58:39;6.47;;;4.83;;
33993;SDS011;20673;48.980;8.138;2024-02-15T05:01:13;7.97;;;5.50;;
33993;SDS011;20673;48.980;8.138;2024-02-15T05:03:43;13.80;;;5.47;;
33993;SDS011;20673;48.980;8.138;2024-02-15T05:06:10;10.10;;;5.55;;
33993;SDS011;20673;48.980;8.138;2024-02-15T05:08:39;9.55;;;5.83;;
33993;SDS011;20673;48.980;8.138;2024-02-15T05:11:12;7.85;;;4.90;;
33993;SDS011;20673;48.980;8.138;2024-02-15T05:13:41;9.10;;;6.17;;
33993;SDS011;20673;48.980;8.138;2024-02-15T05:16:07;7.80;;;5.92;;
33993;SDS011;20673;48.980;8.138;2024-02-15T05:18:34;7.12;;;5.30;;
33993;SDS011;20673;48.980;8.138;2024-02-15T05:21:01;8.18;;;5.35;;
33993;SDS011;20673;48.980;8.138;2024-02-15T05:23:28;10.75;;;6.92;;
33993;SDS011;20673;48.980;8.138;2024-02-15T05:25:55;7.55;;;5.55;;
33993;SDS011;20673;48.980;8.138;2024-02-15T05:28:22;9.35;;;6.60;;
33993;SDS011;20673;48.980;8.138;2024-02-15T05:30:50;10.95;;;6.28;;
33993;SDS011;20673;48.980;8.138;2024-02-15T05:33:16;8.95;;;5.33;;
33993;SDS011;20673;48.980;8.138;2024-02-15T05:35:42;9.55;;;5.62;;
33993;SDS011;20673;48.980;8.138;2024-02-15T05:38:10;8.68;;;5.65;;
33993;SDS011;20673;48.980;8.138;2024-02-15T05:40:38;11.15;;;5.37;;
33993;SDS011;20673;48.980;8.138;2024-02-15T05:43:04;7.80;;;5.03;;
33993;SDS011;20673;48.980;8.138;2024-02-15T05:45:31;8.08;;;5.47;;
33993;SDS011;20673;48.980;8.138;2024-02-15T05:47:59;9.78;;;5.28;;
33993;SDS011;20673;48.980;8.138;2024-02-15T05:50:25;11.45;;;5.10;;
33993;SDS011;20673;48.980;8.138;2024-02-15T05:52:53;8.50;;;5.08;;
33993;SDS011;20673;48.980;8.138;2024-02-15T05:55:20;9.25;;;4.92;;
33993;SDS011;20673;48.980;8.138;2024-02-15T05:57:46;8.53;;;5.55;;
33993;SDS011;20673;48.980;8.138;2024-02-15T06:00:13;7.85;;;5.12;;
33993;SDS011;20673;48.980;8.138;2024-02-15T06:02:40;13.30;;;6.67;;
33993;SDS011;20673;48.980;8.138;2024-02-15T06:05:07;9.48;;;5.65;;
33993;SDS011;20673;48.980;8.138;2024-02-15T06:07:35;12.43;;;6.67;;
33993;SDS011;20673;48.980;8.138;2024-02-15T06:10:01;10.25;;;5.45;;
33993;SDS011;20673;48.980;8.138;2024-02-15T06:12:29;8.28;;;5.17;;
33993;SDS011;20673;48.980;8.138;2024-02-15T06:14:55;6.17;;;4.95;;
33993;SDS011;20673;48.980;8.138;2024-02-15T06:17:22;7.08;;;5.03;;
33993;SDS011;20673;48.980;8.138;2024-02-15T06:19:48;8.45;;;5.17;;
33993;SDS011;20673;48.980;8.138;2024-02-15T06:22:14;10.95;;;6.55;;
33993;SDS011;20673;48.980;8.138;2024-02-15T06:24:40;11.85;;;9.88;;
33993;SDS011;20673;48.980;8.138;2024-02-15T06:27:07;11.65;;;7.78;;
33993;SDS011;20673;48.980;8.138;2024-02-15T06:29:33;13.13;;;8.10;;
33993;SDS011;20673;48.980;8.138;2024-02-15T06:32:17;14.70;;;10.03;;
33993;SDS011;20673;48.980;8.138;2024-02-15T06:35:02;11.03;;;8.85;;
33993;SDS011;20673;48.980;8.138;2024-02-15T06:37:47;12.25;;;8.58;;
33993;SDS011;20673;48.980;8.138;2024-02-15T06:40:31;12.05;;;8.70;;
33993;SDS011;20673;48.980;8.138;2024-02-15T06:42:58;14.87;;;9.15;;
33993;SDS011;20673;48.980;8.138;2024-02-15T06:45:24;14.43;;;8.45;;
33993;SDS011;20673;48.980;8.138;2024-02-15T06:47:51;10.72;;;8.20;;
33993;SDS011;20673;48.980;8.138;2024-02-15T06:50:17;10.70;;;8.43;;
33993;SDS011;20673;48.980;8.138;2024-02-15T06:52:43;8.90;;;7.53;;
33993;SDS011;20673;48.980;8.138;2024-02-15T06:55:10;9.55;;;8.55;;
33993;SDS011;20673;48.980;8.138;2024-02-15T06:57:41;13.22;;;8.58;;
33993;SDS011;20673;48.980;8.138;2024-02-15T07:00:09;11.83;;;8.15;;
33993;SDS011;20673;48.980;8.138;2024-02-15T07:02:38;15.05;;;8.48;;
33993;SDS011;20673;48.980;8.138;2024-02-15T07:05:04;13.10;;;8.30;;
33993;SDS011;20673;48.980;8.138;2024-02-15T07:07:31;12.35;;;8.20;;
33993;SDS011;20673;48.980;8.138;2024-02-15T07:09:57;10.85;;;7.90;;
33993;SDS011;20673;48.980;8.138;2024-02-15T07:12:24;13.25;;;7.22;;
33993;SDS011;20673;48.980;8.138;2024-02-15T07:14:50;11.75;;;7.20;;
33993;SDS011;20673;48.980;8.138;2024-02-15T07:17:16;9.88;;;7.20;;
33993;SDS011;20673;48.980;8.138;2024-02-15T07:19:43;9.45;;;6.47;;
33993;SDS011;20673;48.980;8.138;2024-02-15T07:22:10;14.13;;;8.28;;
33993;SDS011;20673;48.980;8.138;2024-02-15T07:24:37;11.15;;;7.40;;
33993;SDS011;20673;48.980;8.138;2024-02-15T07:27:05;11.40;;;7.05;;
33993;SDS011;20673;48.980;8.138;2024-02-15T07:29:32;10.48;;;8.08;;
33993;SDS011;20673;48.980;8.138;2024-02-15T07:31:58;9.48;;;6.62;;
33993;SDS011;20673;48.980;8.138;2024-02-15T07:34:33;10.78;;;7.40;;
33993;SDS011;20673;48.980;8.138;2024-02-15T07:37:01;10.43;;;9.30;;
33993;SDS011;20673;48.980;8.138;2024-02-15T07:39:28;14.60;;;8.30;;
33993;SDS011;20673;48.980;8.138;2024-02-15T07:41:55;11.45;;;6.95;;
33993;SDS011;20673;48.980;8.138;2024-02-15T07:44:22;8.70;;;6.60;;
33993;SDS011;20673;48.980;8.138;2024-02-15T07:46:48;9.35;;;6.50;;
33993;SDS011;20673;48.980;8.138;2024-02-15T07:49:15;9.65;;;6.33;;
33993;SDS011;20673;48.980;8.138;2024-02-15T07:51:43;8.45;;;5.33;;
33993;SDS011;20673;48.980;8.138;2024-02-15T07:54:09;9.07;;;6.00;;
33993;SDS011;20673;48.980;8.138;2024-02-15T07:56:37;9.85;;;5.37;;
33993;SDS011;20673;48.980;8.138;2024-02-15T07:59:06;9.30;;;5.55;;
33993;SDS011;20673;48.980;8.138;2024-02-15T08:01:32;10.13;;;5.35;;
33993;SDS011;20673;48.980;8.138;2024-02-15T08:03:59;7.85;;;4.80;;
33993;SDS011;20673;48.980;8.138;2024-02-15T08:06:25;9.15;;;5.03;;
33993;SDS011;20673;48.980;8.138;2024-02-15T08:08:53;5.70;;;4.35;;
33993;SDS011;20673;48.980;8.138;2024-02-15T08:11:19;5.95;;;4.87;;
33993;SDS011;20673;48.980;8.138;2024-02-15T08:13:51;9.77;;;5.30;;
33993;SDS011;20673;48.980;8.138;2024-02-15T08:16:20;7.72;;;4.78;;
33993;SDS011;20673;48.980;8.138;2024-02-15T08:18:48;9.50;;;6.72;;
33993;SDS011;20673;48.980;8.138;2024-02-15T08:21:17;9.38;;;6.58;;
33993;SDS011;20673;48.980;8.138;2024-02-15T08:23:46;12.82;;;6.78;;
33993;SDS011;20673;48.980;8.138;2024-02-15T08:26:12;8.80;;;6.92;;
33993;SDS011;20673;48.980;8.138;2024-02-15T08:28:38;12.28;;;7.20;;
33993;SDS011;20673;48.980;8.138;2024-02-15T08:31:05;13.43;;;6.78;;
33993;SDS011;20673;48.980;8.138;2024-02-15T08:33:33;10.25;;;6.47;;
33993;SDS011;20673;48.980;8.138;2024-02-15T08:35:59;9.85;;;5.90;;
33993;SDS011;20673;48.980;8.138;2024-02-15T08:38:27;11.28;;;6.15;;
33993;SDS011;20673;48.980;8.138;2024-02-15T08:40:53;8.85;;;5.67;;
33993;SDS011;20673;48.980;8.138;2024-02-15T08:43:19;11.65;;;5.53;;
33993;SDS011;20673;48.980;8.138;2024-02-15T08:45:45;9.98;;;4.67;;
33993;SDS011;20673;48.980;8.138;2024-02-15T08:48:11;10.18;;;4.50;;
33993;SDS011;20673;48.980;8.138;2024-02-15T08:50:38;9.70;;;4.43;;
33993;SDS011;20673;48.980;8.138;2024-02-15T08:53:07;6.90;;;4.00;;
33993;SDS011;20673;48.980;8.138;2024-02-15T08:55:33;7.70;;;4.30;;
33993;SDS011;20673;48.980;8.138;2024-02-15T08:58:01;6.03;;;4.13;;
33993;SDS011;20673;48.980;8.138;2024-02-15T09:00:28;7.90;;;4.23;;
33993;SDS011;20673;48.980;8.138;2024-02-15T09:02:54;7.60;;;3.83;;
33993;SDS011;20673;48.980;8.138;2024-02-15T09:05:22;6.70;;;4.87;;
33993;SDS011;20673;48.980;8.138;2024-02-15T09:07:49;6.23;;;4.67;;
33993;SDS011;20673;48.980;8.138;2024-02-15T09:10:16;7.17;;;4.03;;
33993;SDS011;20673;48.980;8.138;2024-02-15T09:12:43;10.13;;;4.60;;
33993;SDS011;20673;48.980;8.138;2024-02-15T09:15:12;5.60;;;4.53;;
33993;SDS011;20673;48.980;8.138;2024-02-15T09:17:41;9.53;;;4.80;;
33993;SDS011;20673;48.980;8.138;2024-02-15T09:20:09;5.23;;;4.17;;
33993;SDS011;20673;48.980;8.138;2024-02-15T09:22:46;6.55;;;4.22;;
33993;SDS011;20673;48.980;8.138;2024-02-15T09:25:20;8.10;;;4.03;;
33993;SDS011;20673;48.980;8.138;2024-02-15T09:27:48;9.73;;;3.50;;
33993;SDS011;20673;48.980;8.138;2024-02-15T09:30:16;4.80;;;3.35;;
33993;SDS011;20673;48.980;8.138;2024-02-15T09:32:43;7.30;;;4.30;;
33993;SDS011;20673;48.980;8.138;2024-02-15T09:35:10;10.13;;;4.45;;
33993;SDS011;20673;48.980;8.138;2024-02-15T09:37:43;7.97;;;3.30;;
33993;SDS011;20673;48.980;8.138;2024-02-15T09:40:14;7.28;;;3.35;;
33993;SDS011;20673;48.980;8.138;2024-02-15T09:42:43;6.62;;;3.83;;
33993;SDS011;20673;48.980;8.138;2024-02-15T09:45:11;7.12;;;3.80;;
33993;SDS011;20673;48.980;8.138;2024-02-15T09:47:40;8.78;;;4.17;;
33993;SDS011;20673;48.980;8.138;2024-02-15T09:50:11;7.50;;;3.75;;
33993;SDS011;20673;48.980;8.138;2024-02-15T09:52:43;6.90;;;3.90;;
33993;SDS011;20673;48.980;8.138;2024-02-15T09:55:17;6.70;;;3.83;;
33993;SDS011;20673;48.980;8.138;2024-02-15T09:57:52;6.63;;;4.30;;
33993;SDS011;20673;48.980;8.138;2024-02-15T10:00:26;7.17;;;3.83;;
33993;SDS011;20673;48.980;8.138;2024-02-15T10:02:53;7.37;;;4.00;;
33993;SDS011;20673;48.980;8.138;2024-02-15T10:05:20;6.65;;;4.05;;
33993;SDS011;20673;48.980;8.138;2024-02-15T10:07:48;7.83;;;4.03;;
33993;SDS011;20673;48.980;8.138;2024-02-15T10:12:49;8.43;;;5.17;;
33993;SDS011;20673;48.980;8.138;2024-02-15T10:15:29;6.37;;;4.10;;
33993;SDS011;20673;48.980;8.138;2024-02-15T10:18:06;7.63;;;4.17;;
33993;SDS011;20673;48.980;8.138;2024-02-15T10:20:36;5.50;;;3.97;;
33993;SDS011;20673;48.980;8.138;2024-02-15T10:25:37;8.80;;;4.57;;
33993;SDS011;20673;48.980;8.138;2024-02-15T10:28:10;6.90;;;3.90;;
33993;SDS011;20673;48.980;8.138;2024-02-15T10:30:37;7.47;;;3.67;;
33993;SDS011;20673;48.980;8.138;2024-02-15T10:33:05;6.33;;;3.43;;
33993;SDS011;20673;48.980;8.138;2024-02-15T10:35:35;9.47;;;3.67;;
33993;SDS011;20673;48.980;8.138;2024-02-15T10:38:05;7.10;;;3.70;;
33993;SDS011;20673;48.980;8.138;2024-02-15T10:40:38;6.20;;;3.57;;
33993;SDS011;20673;48.980;8.138;2024-02-15T10:43:08;6.90;;;2.90;;
33993;SDS011;20673;48.980;8.138;2024-02-15T10:45:38;4.93;;;3.00;;
33993;SDS011;20673;48.980;8.138;2024-02-15T10:48:09;6.27;;;2.80;;
33993;SDS011;20673;48.980;8.138;2024-02-15T10:50:36;5.42;;;2.42;;
33993;SDS011;20673;48.980;8.138;2024-02-15T10:58:41;4.50;;;2.20;;
33993;SDS011;20673;48.980;8.138;2024-02-15T11:01:12;4.47;;;1.80;;
33993;SDS011;20673;48.980;8.138;2024-02-15T11:03:50;4.57;;;1.70;;
33993;SDS011;20673;48.980;8.138;2024-02-15T11:06:24;4.00;;;1.60;;
33993;SDS011;20673;48.980;8.138;2024-02-15T11:08:53;3.00;;;1.37;;
33993;SDS011;20673;48.980;8.138;2024-02-15T11:11:20;2.83;;;1.30;;
33993;SDS011;20673;48.980;8.138;2024-02-15T11:13:47;2.73;;;1.30;;
33993;SDS011;20673;48.980;8.138;2024-02-15T11:16:38;3.08;;;1.45;;
33993;SDS011;20673;48.980;8.138;2024-02-15T11:19:02;2.83;;;1.10;;
33993;SDS011;20673;48.980;8.138;2024-02-15T11:24:26;3.35;;;1.40;;
33993;SDS011;20673;48.980;8.138;2024-02-15T11:27:00;4.15;;;1.60;;
33993;SDS011;20673;48.980;8.138;2024-02-15T11:32:36;3.53;;;1.73;;
33993;SDS011;20673;48.980;8.138;2024-02-15T11:46:15;2.70;;;1.20;;
33993;SDS011;20673;48.980;8.138;2024-02-15T11:48:45;6.30;;;1.37;;
33993;SDS011;20673;48.980;8.138;2024-02-15T11:51:27;2.83;;;1.25;;
33993;SDS011;20673;48.980;8.138;2024-02-15T11:54:09;2.95;;;1.17;;
33993;SDS011;20673;48.980;8.138;2024-02-15T11:59:19;3.22;;;1.20;;
33993;SDS011;20673;48.980;8.138;2024-02-15T12:01:56;4.22;;;0.88;;
33993;SDS011;20673;48.980;8.138;2024-02-15T12:04:41;2.50;;;1.07;;
33993;SDS011;20673;48.980;8.138;2024-02-15T12:07:28;3.20;;;1.27;;
33993;SDS011;20673;48.980;8.138;2024-02-15T12:10:15;4.47;;;1.37;;
33993;SDS011;20673;48.980;8.138;2024-02-15T12:13:03;3.10;;;1.13;;
33993;SDS011;20673;48.980;8.138;2024-02-15T12:15:57;2.05;;;0.93;;
33993;SDS011;20673;48.980;8.138;2024-02-15T12:18:42;2.13;;;0.90;;
33993;SDS011;20673;48.980;8.138;2024-02-15T12:21:12;2.50;;;1.00;;
33993;SDS011;20673;48.980;8.138;2024-02-15T12:23:43;3.80;;;1.35;;
33993;SDS011;20673;48.980;8.138;2024-02-15T12:26:11;2.37;;;1.12;;
33993;SDS011;20673;48.980;8.138;2024-02-15T12:28:39;1.20;;;0.60;;
33993;SDS011;20673;48.980;8.138;2024-02-15T12:31:13;1.47;;;0.80;;
33993;SDS011;20673;48.980;8.138;2024-02-15T12:33:43;3.73;;;1.20;;
33993;SDS011;20673;48.980;8.138;2024-02-15T12:36:12;2.60;;;0.90;;
33993;SDS011;20673;48.980;8.138;2024-02-15T12:38:57;2.13;;;1.03;;
33993;SDS011;20673;48.980;8.138;2024-02-15T12:41:21;3.33;;;1.47;;
33993;SDS011;20673;48.980;8.138;2024-02-15T12:43:52;0.93;;;0.80;;
33993;SDS011;20673;48.980;8.138;2024-02-15T12:46:30;2.57;;;1.40;;
33993;SDS011;20673;48.980;8.138;2024-02-15T12:51:52;4.13;;;0.90;;
33993;SDS011;20673;48.980;8.138;2024-02-15T12:54:24;2.53;;;0.87;;
33993;SDS011;20673;48.980;8.138;2024-02-15T12:57:07;3.73;;;1.30;;
33993;SDS011;20673;48.980;8.138;2024-02-15T12:59:36;2.47;;;0.90;;
33993;SDS011;20673;48.980;8.138;2024-02-15T13:02:02;2.30;;;0.72;;
33993;SDS011;20673;48.980;8.138;2024-02-15T13:04:29;2.53;;;1.20;;
33993;SDS011;20673;48.980;8.138;2024-02-15T13:06:55;3.17;;;1.33;;
33993;SDS011;20673;48.980;8.138;2024-02-15T13:09:21;1.60;;;1.00;;
33993;SDS011;20673;48.980;8.138;2024-02-15T13:11:48;4.07;;;1.07;;
33993;SDS011;20673;48.980;8.138;2024-02-15T13:14:15;2.63;;;1.40;;
33993;SDS011;20673;48.980;8.138;2024-02-15T13:16:42;3.57;;;1.93;;
33993;SDS011;20673;48.980;8.138;2024-02-15T13:19:10;1.27;;;0.90;;
33993;SDS011;20673;48.980;8.138;2024-02-15T13:21:36;3.87;;;1.20;;
33993;SDS011;20673;48.980;8.138;2024-02-15T13:24:02;3.77;;;1.17;;
33993;SDS011;20673;48.980;8.138;2024-02-15T13:26:30;2.93;;;0.87;;
33993;SDS011;20673;48.980;8.138;2024-02-15T13:28:58;4.00;;;1.17;;
33993;SDS011;20673;48.980;8.138;2024-02-15T13:31:25;2.53;;;1.10;;
33993;SDS011;20673;48.980;8.138;2024-02-15T13:33:52;3.40;;;1.20;;
33993;SDS011;20673;48.980;8.138;2024-02-15T13:36:18;2.43;;;0.80;;
33993;SDS011;20673;48.980;8.138;2024-02-15T13:38:45;2.43;;;1.10;;
33993;SDS011;20673;48.980;8.138;2024-02-15T13:41:12;4.50;;;1.37;;
33993;SDS011;20673;48.980;8.138;2024-02-15T13:43:38;3.13;;;1.20;;
33993;SDS011;20673;48.980;8.138;2024-02-15T13:46:06;4.50;;;1.77;;
33993;SDS011;20673;48.980;8.138;2024-02-15T13:48:33;3.92;;;1.40;;
33993;SDS011;20673;48.980;8.138;2024-02-15T13:50:59;2.92;;;1.47;;
33993;SDS011;20673;48.980;8.138;2024-02-15T13:53:25;2.80;;;1.25;;
33993;SDS011;20673;48.980;8.138;2024-02-15T13:55:53;4.58;;;1.40;;
33993;SDS011;20673;48.980;8.138;2024-02-15T13:58:19;4.53;;;1.50;;
33993;SDS011;20673;48.980;8.138;2024-02-15T14:00:45;5.25;;;1.70;;
33993;SDS011;20673;48.980;8.138;2024-02-15T14:03:14;3.87;;;1.50;;
33993;SDS011;20673;48.980;8.138;2024-02-15T14:05:40;3.77;;;1.30;;
33993;SDS011;20673;48.980;8.138;2024-02-15T14:08:07;2.67;;;1.37;;
33993;SDS011;20673;48.980;8.138;2024-02-15T14:10:34;3.77;;;1.47;;
33993;SDS011;20673;48.980;8.138;2024-02-15T14:13:02;5.53;;;1.70;;
33993;SDS011;20673;48.980;8.138;2024-02-15T14:15:37;3.70;;;1.55;;
33993;SDS011;20673;48.980;8.138;2024-02-15T14:18:08;4.03;;;1.77;;
33993;SDS011;20673;48.980;8.138;2024-02-15T14:20:42;4.70;;;2.03;;
33993;SDS011;20673;48.980;8.138;2024-02-15T14:23:08;2.53;;;1.70;;
33993;SDS011;20673;48.980;8.138;2024-02-15T14:25:36;4.43;;;2.10;;
33993;SDS011;20673;48.980;8.138;2024-02-15T14:28:02;4.37;;;2.08;;
33993;SDS011;20673;48.980;8.138;2024-02-15T14:30:30;4.87;;;2.12;;
33993;SDS011;20673;48.980;8.138;2024-02-15T14:33:15;3.45;;;1.80;;
33993;SDS011;20673;48.980;8.138;2024-02-15T14:35:41;6.15;;;1.95;;
33993;SDS011;20673;48.980;8.138;2024-02-15T14:38:09;3.97;;;1.90;;
33993;SDS011;20673;48.980;8.138;2024-02-15T14:43:13;4.87;;;1.40;;
33993;SDS011;20673;48.980;8.138;2024-02-15T14:45:40;4.05;;;1.65;;
33993;SDS011;20673;48.980;8.138;2024-02-15T14:48:07;3.63;;;1.60;;
33993;SDS011;20673;48.980;8.138;2024-02-15T14:50:41;2.93;;;1.17;;
33993;SDS011;20673;48.980;8.138;2024-02-15T14:53:08;5.53;;;1.50;;
33993;SDS011;20673;48.980;8.138;2024-02-15T14:55:34;3.50;;;1.67;;
33993;SDS011;20673;48.980;8.138;2024-02-15T14:58:03;4.03;;;1.30;;
33993;SDS011;20673;48.980;8.138;2024-02-15T15:00:33;4.28;;;1.55;;
33993;SDS011;20673;48.980;8.138;2024-02-15T15:03:00;3.67;;;1.60;;
33993;SDS011;20673;48.980;8.138;2024-02-15T15:05:28;7.23;;;1.43;;
33993;SDS011;20673;48.980;8.138;2024-02-15T15:08:12;2.60;;;0.80;;
33993;SDS011;20673;48.980;8.138;2024-02-15T15:10:57;2.07;;;0.80;;
33993;SDS011;20673;48.980;8.138;2024-02-15T15:13:41;2.83;;;1.37;;
33993;SDS011;20673;48.980;8.138;2024-02-15T15:16:07;2.30;;;1.20;;
33993;SDS011;20673;48.980;8.138;2024-02-15T15:18:34;3.50;;;1.17;;
33993;SDS011;20673;48.980;8.138;2024-02-15T15:21:01;4.50;;;1.43;;
33993;SDS011;20673;48.980;8.138;2024-02-15T15:23:27;4.40;;;1.07;;
33993;SDS011;20673;48.980;8.138;2024-02-15T15:26:04;2.00;;;1.10;;
33993;SDS011;20673;48.980;8.138;2024-02-15T15:28:28;5.03;;;1.20;;
33993;SDS011;20673;48.980;8.138;2024-02-15T15:30:54;4.23;;;2.43;;
33993;SDS011;20673;48.980;8.138;2024-02-15T15:33:22;4.53;;;1.50;;